Flight Track Log - Related Links

Times and Time Zones

All times are in EDT time to prevent confusion due to time zone crossing. See the AAL832 flight status page for this flight to view local times or setup timezone preferences in your user account.

Time Position Orientation Groundspeed Altitude Reporting Facility
EDT Latitude Longitude Course Direction KTS MPH feet Rate Location/Type
Sat 12:47:17 PM 33.9342 -118.4381 46° Northeast 182 209 1,100  Level Los Angeles Center
Sat 12:48:19 PM 33.9150 -118.5169 254° West 230 265 2,500 2,081 Climbing Los Angeles Center
Sat 12:49:00 PM 34.1204 -118.0925 59° Northeast  Level FlightAware Approximate
Sat 12:49:21 PM 33.8647 -118.5839 228° Southwest 273 314 5,400  Level Los Angeles Center
Sat 12:50:00 PM 34.1827 -117.9679 59° Northeast  Level FlightAware Approximate
Sat 12:50:23 PM 33.8233 -118.5192 128° Southeast 284 327 8,000  Level Los Angeles Center
Sat 12:51:00 PM 34.2450 -117.8433 59° Northeast  Level FlightAware Approximate
Sat 12:51:25 PM 33.8972 -118.4550 36° Northeast 318 366 10,700  Level Los Angeles Center
Sat 12:52:00 PM 34.3214 -117.7316 46° Northeast  Level FlightAware Approximate
Sat 12:52:28 PM 33.9594 -118.3922 40° Northeast 320 368 12,700  Level Los Angeles Center
Sat 12:53:30 PM 34.0133 -118.2919 57° Northeast 346 398 14,300 1,694 Climbing Los Angeles Center
Sat 12:54:32 PM 34.0739 -118.1869 55° Northeast 372 428 16,200 2,032 Climbing Los Angeles Center
Sat 12:55:34 PM 34.1497 -118.0503 56° Northeast 404 465 18,500 2,129 Climbing Los Angeles Center
Sat 12:56:36 PM 34.2161 -117.9344 55° Northeast 416 479 20,600 1,790 Climbing Los Angeles Center
Sat 12:57:38 PM 34.2686 -117.8392 56° Northeast 422 486 22,200 1,645 Climbing Los Angeles Center
Sat 12:58:40 PM 34.3517 -117.6911 56° Northeast 440 506 24,000 1,694 Climbing Los Angeles Center
Sat 12:59:42 PM 34.4325 -117.5606 53° Northeast 459 528 25,700 1,584 Climbing Los Angeles Center
Sat 01:00:45 PM 34.5164 -117.4431 49° Northeast 465 535 27,300 1,344 Climbing Los Angeles Center
Sat 01:01:47 PM 34.6006 -117.3225 50° Northeast 470 541 28,500 1,113 Climbing Los Angeles Center
Sat 01:02:49 PM 34.6875 -117.1969 50° Northeast 486 559 29,600 1,306 Climbing Los Angeles Center
Sat 01:03:51 PM 34.7925 -117.0467 50° Northeast 490 564 31,200 1,306 Climbing Los Angeles Center
Sat 01:04:53 PM 34.8811 -116.9200 50° Northeast 495 570 32,300 1,161 Climbing Los Angeles Center
Sat 01:05:55 PM 34.9700 -116.7925 50° Northeast 496 571 33,600 1,210 Climbing Los Angeles Center
Sat 01:06:57 PM 35.0589 -116.6650 50° Northeast 498 573 34,800 1,210 Climbing Los Angeles Center
Sat 01:07:59 PM 35.1631 -116.5136 50° Northeast 492 566 36,100 1,056 Climbing Los Angeles Center
Sat 01:09:02 PM 35.2481 -116.3894 50° Northeast 480 552 37,000 394 Climbing Los Angeles Center
Sat 01:10:16 PM 35.3325 -116.2614 51° Northeast 483 556 37,000  Level Los Angeles Center
Sat 01:11:18 PM 35.4375 -116.1097 50° Northeast 486 559 37,000  Level Los Angeles Center
Sat 01:12:20 PM 35.5222 -115.9831 51° Northeast 484 557 37,000  Level Los Angeles Center
Sat 01:13:22 PM 35.6161 -115.8494 49° Northeast 482 555 37,000  Level Los Angeles Center
Sat 01:14:24 PM 35.7025 -115.7250 49° Northeast 479 551 37,000  Level Los Angeles Center
Sat 01:15:27 PM 35.8039 -115.5722 51° Northeast 482 555 37,000  Level Los Angeles Center
Sat 01:16:29 PM 35.8886 -115.4458 50° Northeast 483 556 37,000  Level Los Angeles Center
Sat 01:17:31 PM 35.9719 -115.3194 51° Northeast 480 552 37,000  Level Los Angeles Center
Sat 01:18:33 PM 36.0547 -115.1933 51° Northeast 477 549 37,000  Level Los Angeles Center
Sat 01:19:35 PM 36.1269 -115.0561 57° Northeast 481 554 37,000  Level Los Angeles Center
Sat 01:20:37 PM 36.2078 -114.8831 60° Northeast 486 559 37,000  Level Los Angeles Center
Sat 01:21:39 PM 36.2756 -114.7386 60° Northeast 488 562 37,000  Level Los Angeles Center
Sat 01:22:41 PM 36.3425 -114.5925 60° Northeast 489 563 37,000  Level Los Angeles Center
Sat 01:23:43 PM 36.4106 -114.4447 60° Northeast 493 567 37,000  Level Los Angeles Center
Sat 01:24:45 PM 36.4789 -114.2981 60° Northeast 491 565 37,000  Level Los Angeles Center
Sat 01:25:48 PM 36.5586 -114.1239 60° Northeast 494 568 37,000  Level Los Angeles Center
Sat 01:26:50 PM 36.6272 -113.9756 60° Northeast 494 568 37,000  Level Los Angeles Center
Sat 01:27:52 PM 36.6944 -113.8253 61° Northeast 495 570 37,000  Level Los Angeles Center
Sat 01:28:54 PM 36.7625 -113.6767 60° Northeast 495 570 37,000  Level Los Angeles Center
Sat 01:29:56 PM 36.8297 -113.5281 60° Northeast 492 566 37,000  Level Los Angeles Center
Sat 01:30:59 PM 36.9100 -113.3464 61° Northeast 497 572 37,000  Level Los Angeles Center
Sat 01:32:00 PM 36.9764 -113.1936 61° Northeast 501 577 37,000  Level Los Angeles Center
Sat 01:33:02 PM 37.0436 -113.0428 61° Northeast 500 575 37,000  Level Los Angeles Center
Sat 01:34:04 PM 37.1117 -112.8911 61° Northeast 502 578 37,000  Level Los Angeles Center
Sat 01:35:06 PM 37.1775 -112.7392 61° Northeast 501 577 37,000  Level Los Angeles Center
Sat 01:36:09 PM 37.2567 -112.5586 61° Northeast 500 575 37,000  Level Los Angeles Center
Sat 01:37:10 PM 37.3217 -112.4092 61° Northeast 496 571 37,000  Level Los Angeles Center
Sat 01:38:12 PM 37.3867 -112.2611 61° Northeast 492 566 37,000  Level Salt Lake Center
Sat 01:39:14 PM 37.4508 -112.1111 62° Northeast 491 565 37,000  Level Salt Lake Center
Sat 01:40:16 PM 37.5164 -111.9619 61° Northeast 490 564 37,000  Level Salt Lake Center
Sat 01:41:18 PM 37.6061 -111.7897 57° Northeast 491 565 37,000  Level Salt Lake Center
Sat 01:42:23 PM 37.6819 -111.6464 56° Northeast 492 566 37,000  Level Denver Center
Sat 01:43:22 PM 37.7550 -111.5033 57° Northeast 489 563 37,000  Level Salt Lake Center
Sat 01:44:24 PM 37.8272 -111.3586 58° Northeast 488 562 37,000  Level Salt Lake Center
Sat 01:45:26 PM 37.9003 -111.2161 57° Northeast 485 558 37,000  Level Salt Lake Center
Sat 01:46:28 PM 37.9708 -111.0750 58° Northeast 478 550 37,000  Level Salt Lake Center
Sat 01:47:30 PM 38.0453 -110.9228 58° Northeast 472 543 37,000  Level Salt Lake Center
Sat 01:48:32 PM 38.1236 -110.7683 57° Northeast 468 539 37,000  Level Salt Lake Center
Sat 01:49:34 PM 38.1906 -110.6361 57° Northeast 466 536 37,000  Level Salt Lake Center
Sat 01:50:39 PM 38.2636 -110.4758 60° Northeast 466 536 37,000  Level Denver Center
Sat 01:51:42 PM 38.3344 -110.3128 61° Northeast 470 541 37,000  Level Denver Center
Sat 01:52:40 PM 38.3933 -110.1714 62° Northeast 471 542 37,000  Level Salt Lake Center
Sat 01:53:42 PM 38.4503 -110.0264 63° Northeast 476 548 37,000  Level Salt Lake Center
Sat 01:54:48 PM 38.5172 -109.8586 63° Northeast 476 548 37,000  Level Denver Center
Sat 01:55:50 PM 38.5753 -109.7172 62° Northeast 470 541 37,000  Level Denver Center
Sat 01:56:52 PM 38.6431 -109.5422 64° Northeast 488 562 37,000  Level Denver Center
Sat 01:57:54 PM 38.7006 -109.3933 64° Northeast 489 563 37,000  Level Denver Center
Sat 01:58:56 PM 38.7708 -109.2197 63° Northeast 492 566 37,000  Level Denver Center
Sat 01:59:58 PM 38.8294 -109.0694 63° Northeast 493 567 37,000  Level Denver Center
Sat 02:01:00 PM 38.8983 -108.8967 63° Northeast 489 563 37,000  Level Denver Center
Sat 02:02:02 PM 38.9567 -108.7478 63° Northeast 490 564 37,000  Level Denver Center
Sat 02:03:04 PM 39.0253 -108.5750 63° Northeast 487 560 37,000  Level Denver Center
Sat 02:04:06 PM 39.0825 -108.4214 64° Northeast 498 573 37,000  Level Denver Center
Sat 02:05:08 PM 39.1517 -108.2442 63° Northeast 498 573 37,000  Level Denver Center
Sat 02:06:11 PM 39.2081 -108.0969 64° Northeast 482 555 37,000  Level Denver Center
Sat 02:07:13 PM 39.2744 -107.9208 64° Northeast 489 563 37,000  Level Denver Center
Sat 02:08:15 PM 39.3317 -107.7706 64° Northeast 488 562 37,000  Level Denver Center
Sat 02:09:17 PM 39.3975 -107.5931 64° Northeast 492 566 37,000  Level Denver Center
Sat 02:10:19 PM 39.4514 -107.4450 65° Northeast 481 554 37,000  Level Denver Center
Sat 02:11:21 PM 39.5169 -107.2686 64° Northeast 487 560 37,000  Level Denver Center
Sat 02:12:23 PM 39.5742 -107.1181 64° Northeast 481 554 37,000  Level Denver Center
Sat 02:13:25 PM 39.6392 -106.9431 64° Northeast 482 555 37,000  Level Denver Center
Sat 02:14:27 PM 39.6958 -106.7889 64° Northeast 482 555 37,000  Level Denver Center
Sat 02:15:29 PM 39.7531 -106.6314 65° Northeast 478 550 37,000  Level Denver Center
Sat 02:16:31 PM 39.8144 -106.4531 66° East 476 548 37,000  Level Denver Center
Sat 02:17:33 PM 39.8611 -106.2903 69° East 479 551 37,000  Level Denver Center
Sat 02:18:35 PM 39.9103 -106.1269 69° East 484 557 37,000  Level Denver Center
Sat 02:19:37 PM 39.9575 -105.9639 69° East 481 554 37,000  Level Denver Center
Sat 02:20:39 PM 40.0028 -105.8011 70° East 478 550 37,000  Level Denver Center
Sat 02:21:41 PM 40.0503 -105.6367 69° East 479 551 37,000  Level Denver Center
Sat 02:22:44 PM 40.1033 -105.4436 70° East 470 541 37,000  Level Denver Center
Sat 02:23:46 PM 40.1489 -105.2803 70° East 475 547 37,000  Level Denver Center
Sat 02:24:48 PM 40.1939 -105.1197 70° East 469 540 37,000  Level Denver Center
Sat 02:25:50 PM 40.2406 -104.9556 70° East 478 550 37,000  Level Denver Center
Sat 02:26:52 PM 40.2839 -104.7931 71° East 472 543 37,000  Level Denver Center
Sat 02:27:54 PM 40.3306 -104.6292 69° East 478 550 37,000  Level Denver Center
Sat 02:28:56 PM 40.3736 -104.4672 71° East 470 541 37,000  Level Denver Center
Sat 02:29:58 PM 40.4244 -104.2744 71° East 467 537 37,000  Level Denver Center
Sat 02:30:59 PM 40.4583 -104.1467 71° East 463 533 37,000  Level Denver Center
Sat 02:32:02 PM 40.5094 -103.9619 70° East 448 516 37,000  Level Denver Center
Sat 02:33:04 PM 40.5514 -103.8008 71° East 464 534 37,000  Level Denver Center
Sat 02:34:06 PM 40.5911 -103.6400 72° East 464 534 37,000  Level Denver Center
Sat 02:35:08 PM 40.6333 -103.4783 71° East 466 536 37,000  Level Denver Center
Sat 02:36:10 PM 40.6761 -103.3144 71° East 473 544 37,000  Level Denver Center
Sat 02:37:12 PM 40.7253 -103.1172 72° East 473 544 37,000  Level Denver Center
Sat 02:38:14 PM 40.7642 -102.9614 72° East 474 545 37,000  Level Denver Center
Sat 02:39:16 PM 40.8092 -102.7792 72° East 468 539 37,000  Level Denver Center
Sat 02:40:18 PM 40.8481 -102.6225 72° East 469 540 37,000  Level Denver Center
Sat 02:41:20 PM 40.8917 -102.4417 72° East 464 534 37,000  Level Denver Center
Sat 02:42:22 PM 40.9300 -102.2869 72° East 462 532 37,000  Level Denver Center
Sat 02:43:24 PM 40.9725 -102.1067 73° East 460 529 37,000  Level Denver Center
Sat 02:44:26 PM 41.0042 -101.9781 72° East 459 528 37,000  Level Denver Center
Sat 02:45:28 PM 41.0539 -101.8025 69° East 456 525 37,000  Level Denver Center
Sat 02:46:30 PM 41.1017 -101.6244 70° East 458 527 37,000  Level Denver Center
Sat 02:47:44 PM 41.1414 -101.4733 71° East 454 522 37,000  Level Denver Center
Sat 02:48:46 PM 41.1958 -101.2697 70° East 456 525 37,000  Level Denver Center
Sat 02:49:48 PM 41.2364 -101.1172 70° East 455 524 37,000  Level Denver Center
Sat 02:50:50 PM 41.2822 -100.9378 71° East 456 525 37,000  Level Denver Center
Sat 02:51:52 PM 41.3233 -100.7847 70° East 456 525 37,000  Level Denver Center
Sat 02:52:54 PM 41.3681 -100.6089 71° East 449 517 37,000  Level Denver Center
Sat 02:53:56 PM 41.4067 -100.4583 71° East 449 517 37,000  Level Denver Center
Sat 02:54:58 PM 41.4514 -100.2817 71° East 448 516 37,000  Level Denver Center
Sat 02:56:00 PM 41.4897 -100.1300 71° East 449 517 37,000  Level Denver Center
Sat 02:57:02 PM 41.5283 -99.9769 71° East 453 521 37,000  Level Denver Center
Sat 02:58:04 PM 41.5728 -99.7986 72° East 454 522 37,000  Level Denver Center
Sat 02:59:06 PM 41.6103 -99.6444 72° East 458 527 37,000  Level Denver Center
Sat 02:59:40 PM 41.6336 -99.5486 72° East 457 526 37,000  Level Minneapolis Center
Sat 03:00:42 PM 41.6739 -99.3847 72° East 460 529 37,000  Level Minneapolis Center
Sat 03:01:56 PM 41.7142 -99.2211 72° East 460 529 37,000  Level Minneapolis Center
Sat 03:02:58 PM 41.7603 -99.0258 72° East 457 526 37,000  Level Minneapolis Center
Sat 03:04:00 PM 41.8067 -98.8322 72° East 454 522 37,000  Level Minneapolis Center
Sat 03:05:02 PM 41.8656 -98.7264 53° Northeast 446 513 37,000  Level Minneapolis Center
Sat 03:06:04 PM 41.9922 -98.6325 29° Northeast 433 498 37,000  Level Minneapolis Center
Sat 03:07:06 PM 42.0994 -98.5556 28° Northeast 434 499 37,000  Level Minneapolis Center
Sat 03:08:08 PM 42.2061 -98.4778 28° Northeast 435 501 37,000  Level Minneapolis Center
Sat 03:09:22 PM 42.3133 -98.4000 28° Northeast 438 504 37,000  Level Minneapolis Center
Sat 03:10:24 PM 42.4433 -98.3075 28° Northeast 440 506 37,000  Level Minneapolis Center
Sat 03:11:26 PM 42.5692 -98.2050 31° Northeast 439 505 37,000  Level Minneapolis Center
Sat 03:12:28 PM 42.6131 -98.0447 70° East 451 519 37,000  Level Minneapolis Center
Sat 03:13:30 PM 42.6172 -97.8731 88° East 456 525 37,000  Level Minneapolis Center
Sat 03:14:31 PM 42.6183 -97.7147 89° East 458 527 37,000  Level Minneapolis Center
Sat 03:15:33 PM 42.6203 -97.5422 89° East 458 527 37,000  Level Minneapolis Center
Sat 03:16:35 PM 42.6228 -97.3375 89° East 453 521 37,000  Level Minneapolis Center
Sat 03:17:37 PM 42.6236 -97.1678 90° East 451 519 37,000  Level Minneapolis Center
Sat 03:18:39 PM 42.6253 -96.9981 89° East 449 517 37,000  Level Minneapolis Center
Sat 03:19:40 PM 42.6267 -96.8294 89° East 448 516 37,000  Level Minneapolis Center
Sat 03:20:42 PM 42.6267 -96.6575 90° East 451 519 37,000  Level Minneapolis Center
Sat 03:21:43 PM 42.6272 -96.5214 90° East 451 519 37,000  Level Minneapolis Center
Sat 03:22:46 PM 42.6283 -96.3164 90° East 452 520 37,000  Level Minneapolis Center
Sat 03:23:47 PM 42.6269 -96.1450 91° East 453 521 37,000  Level Minneapolis Center
Sat 03:24:49 PM 42.6269 -95.9375 90° East 456 525 37,000  Level Minneapolis Center
Sat 03:25:51 PM 42.6264 -95.7678 90° East 451 519 37,000  Level Minneapolis Center
Sat 03:26:52 PM 42.6264 -95.5972 90° East 451 519 37,000  Level Minneapolis Center
Sat 03:27:54 PM 42.6247 -95.4275 91° East 449 517 37,000  Level Minneapolis Center
Sat 03:28:56 PM 42.6228 -95.2594 91° East 447 514 37,000  Level Minneapolis Center
Sat 03:29:57 PM 42.6219 -95.0917 90° East 445 512 37,000  Level Minneapolis Center
Sat 03:31:11 PM 42.6200 -94.9247 91° East 442 509 37,000  Level Minneapolis Center
Sat 03:32:13 PM 42.6175 -94.7242 91° East 440 506 37,000  Level Minneapolis Center
Sat 03:33:14 PM 42.6144 -94.5533 91° East 441 507 37,000  Level Minneapolis Center
Sat 03:34:16 PM 42.6128 -94.3908 91° East 438 504 37,000  Level Minneapolis Center
Sat 03:35:30 PM 42.6078 -94.1956 92° East 436 502 37,000  Level Minneapolis Center
Sat 03:36:32 PM 42.6014 -94.0008 92° East 435 501 37,000  Level Minneapolis Center
Sat 03:37:33 PM 42.5958 -93.8381 93° East 435 501 37,000  Level Minneapolis Center
Sat 03:38:35 PM 42.5903 -93.6764 93° East 434 499 37,000  Level Minneapolis Center
Sat 03:39:37 PM 42.5853 -93.5144 92° East 435 501 37,000  Level Minneapolis Center
Sat 03:40:38 PM 42.5778 -93.3189 93° East 436 502 37,000  Level Minneapolis Center
Sat 03:41:40 PM 42.5722 -93.1564 93° East 436 502 37,000 -43 Level Minneapolis Center
Sat 03:42:56 PM 42.5636 -92.9600 93° East 435 501 36,900 -482 Descending Chicago Center
Sat 03:43:57 PM 42.5567 -92.7961 93° East 439 505 35,900 -927 Descending Chicago Center
Sat 03:44:59 PM 42.5497 -92.6289 93° East 449 517 35,000 -968 Descending Chicago Center
Sat 03:46:01 PM 42.5403 -92.4283 94° East 450 518 33,900 -1,016 Descending Chicago Center
Sat 03:47:03 PM 42.5328 -92.2617 93° East 449 517 32,900 -919 Descending Chicago Center
Sat 03:48:05 PM 42.5242 -92.0931 94° East 453 521 32,000 -878 Descending Chicago Center
Sat 03:49:06 PM 42.5236 -91.9269 90° East 450 518 31,100 -488 Descending Chicago Center
Sat 03:50:08 PM 42.5258 -91.7411 89° East 424 488 31,000 -290 Descending Chicago Center
Sat 03:51:10 PM 42.5258 -91.5872 90° East 420 483 30,500 -823 Descending Chicago Center
Sat 03:52:12 PM 42.5272 -91.4342 89° East 417 480 29,300 -1,161 Descending Chicago Center
Sat 03:53:14 PM 42.5264 -91.2783 90° East 421 484 28,100 -1,113 Descending Chicago Center
Sat 03:54:16 PM 42.5261 -91.0889 90° East 425 489 27,000 -537 Descending Chicago Center
Sat 03:55:17 PM 42.5258 -90.9333 90° East 420 483 27,000  Level Chicago Center
Sat 03:56:19 PM 42.5253 -90.7775 90° East 419 482 27,000  Level Chicago Center
Sat 03:57:21 PM 42.5253 -90.6214 90° East 419 482 27,000  Level Chicago Center
Sat 03:58:23 PM 42.5231 -90.4661 91° East 417 480 27,000 -96 Level Chicago Center
Sat 03:59:26 PM 42.5217 -90.2775 91° East 421 484 26,800 -576 Descending Chicago Center
Sat 04:00:28 PM 42.5203 -90.1208 91° East 414 476 25,800 -968 Descending Chicago Center
Sat 04:01:30 PM 42.5200 -89.9717 90° East 408 470 24,800 -968 Descending Chicago Center
Sat 04:02:32 PM 42.5172 -89.8183 91° East 399 459 23,800 -1,016 Descending Chicago Center
Sat 04:03:34 PM 42.5144 -89.6683 91° East 399 459 22,700 -1,113 Descending Chicago Center
Sat 04:04:36 PM 42.4950 -89.4989 99° East 390 449 21,500 -1,065 Descending Chicago Center
Sat 04:05:38 PM 42.4781 -89.3558 99° East 385 443 20,500 -1,415 Descending Chicago Center
Sat 04:06:39 PM 42.4619 -89.2189 99° East 370 426 18,600 -1,805 Descending Chicago Center
Sat 04:07:41 PM 42.4467 -89.0864 99° East 360 414 16,800 -1,887 Descending Chicago Center
Sat 04:08:43 PM 42.4306 -88.9581 100° East 349 402 14,700 -2,226 Descending Chicago Center
Sat 04:09:45 PM 42.4122 -88.8078 99° East 348 400 12,200 -2,032 Descending Chicago Center
Sat 04:10:47 PM 42.3972 -88.6844 99° East 335 386 10,500 -1,065 Descending Chicago Center
Sat 04:11:49 PM 42.3839 -88.5731 99° East 301 346 10,000 -677 Descending Chicago Center
Sat 04:12:51 PM 42.3700 -88.4767 101° East 272 313 9,100 -484 Descending Chicago Center
Sat 04:13:53 PM 42.3428 -88.3975 115° Southeast 238 274 9,000 -48 Descending Chicago Center
Sat 04:14:55 PM 42.2778 -88.3650 160° South 239 275 9,000 -48 Level Chicago Center
Sat 04:15:57 PM 42.2181 -88.3675 182° South 221 254 8,900  Descending Chicago Center
Sat 04:16:59 PM 42.1622 -88.3656 179° South 207 238 9,000 -290 Climbing Chicago Center
Sat 04:18:01 PM 42.1075 -88.3828 193° South 213 245 8,300 -581 Descending Chicago Center
Sat 04:19:03 PM 42.0636 -88.4256 216° Southwest 218 251 7,800 -677 Descending Chicago Center
Sat 04:20:05 PM 41.9967 -88.4225 178° South 204 235 6,900 -823 Descending Chicago Center
Sat 04:21:07 PM 41.9461 -88.4075 168° South 202 232 6,100 -919 Descending Chicago Center
Sat 04:22:09 PM 41.9558 -88.3392 79° East 203 234 5,000 -532 Descending Chicago Center
Sat 04:23:11 PM 41.9669 -88.2719 77° East 193 222 5,000 -293 Level Chicago Center
Sat 04:24:12 PM 41.9678 -88.2033 89° East 188 216 4,400 -794 Descending Chicago Center
Sat 04:25:27 PM 41.9667 -88.1000 91° East 188 216 3,200 -978 Descending Chicago TRACON
Sat 04:26:27 PM 41.9667 -88.0333 90° East 183 211 2,200 -900 Descending Chicago TRACON
Sat 04:27:27 PM 41.9667 -87.9833 90° East 146 168 1,400 -800 Descending Chicago TRACON

Login

Don't have an account? Register now (free) for customized features, flight alerts, and more!